Stickney, South Dakota
Current Conditions -  °F | °C
As of 2:53 AM on Saturday 29 Nov 2014 (Local Time) from KMHE Reporting Station
Haze Haze  
Wind Chill: -8°   Ceiling: Unl
Heat Index: -4°   Visibility: 5mi
Dew Point: -6°   Wind: 6mph
Humidity: 91%   Direction: 140°SE
Pressure: 29.47"   Gusts: NA
Location:  43.59°N, 98.44°W
Report Text: KMHE 290853Z AUTO 14005KT 5SM BR CLR M04/M06 A2947 RMK AO2 SLP990 T10441056 56018
Loading
Personal Weather Stations






























Interactive Weather Map New forecast layout! Learn more

10-Day Weather Forecast

Advertisements
Track Severe Weather on mobile